createdAt,value
2022-09-18T00:01:37.181Z,10.57
2022-09-18T00:04:08.039Z,7.60
2022-09-18T00:06:38.502Z,9.40
2022-09-18T00:09:10.086Z,9.55
2022-09-18T00:11:41.438Z,12.23
2022-09-18T00:14:11.646Z,11.07
2022-09-18T00:16:40.791Z,10.68
2022-09-18T00:19:09.615Z,8.18
2022-09-18T00:21:40.037Z,7.97
2022-09-18T00:24:07.802Z,10.85
2022-09-18T00:26:35.889Z,6.45
2022-09-18T00:29:04.799Z,5.80
2022-09-18T00:31:36.039Z,8.90
2022-09-18T00:34:08.060Z,7.87
2022-09-18T00:36:37.764Z,10.35
2022-09-18T00:39:07.309Z,7.28
2022-09-18T00:41:38.774Z,12.68
2022-09-18T00:44:39.932Z,9.43
2022-09-18T00:47:10.249Z,12.55
2022-09-18T00:50:01.429Z,20.23
2022-09-18T00:52:44.890Z,14.45
2022-09-18T00:55:14.207Z,14.15
2022-09-18T00:57:49.852Z,17.58
2022-09-18T01:00:18.333Z,10.85
2022-09-18T01:02:48.932Z,10.50
2022-09-18T01:05:24.043Z,7.22
2022-09-18T01:08:04.384Z,7.03
2022-09-18T01:11:00.845Z,8.45
2022-09-18T01:14:07.261Z,10.27
2022-09-18T01:16:42.856Z,8.10
2022-09-18T01:20:01.787Z,9.27
2022-09-18T01:23:03.896Z,8.88
2022-09-18T01:25:52.168Z,16.75
2022-09-18T01:28:24.520Z,15.10
2022-09-18T01:30:57.686Z,11.27
2022-09-18T01:33:57.397Z,12.98
2022-09-18T01:36:30.662Z,10.85
2022-09-18T01:39:07.053Z,8.98
2022-09-18T01:41:37.671Z,13.88
2022-09-18T01:44:15.888Z,10.30
2022-09-18T01:46:46.165Z,10.57
2022-09-18T01:49:23.891Z,5.50
2022-09-18T01:51:55.328Z,9.55
2022-09-18T01:54:27.529Z,6.15
2022-09-18T01:57:04.156Z,8.82
2022-09-18T02:00:02.874Z,12.73
2022-09-18T02:02:41.511Z,10.55
2022-09-18T02:05:18.891Z,9.07
2022-09-18T02:07:57.378Z,10.55
2022-09-18T02:10:29.251Z,6.90
2022-09-18T02:12:58.246Z,9.75
2022-09-18T02:15:30.713Z,11.12
2022-09-18T02:18:08.791Z,8.32
2022-09-18T02:20:38.717Z,11.70
2022-09-18T02:23:08.683Z,9.88
2022-09-18T02:25:46.252Z,9.38
2022-09-18T02:28:18.173Z,9.40
2022-09-18T02:30:46.234Z,7.75
2022-09-18T02:33:43.627Z,9.95
2022-09-18T02:36:29.581Z,11.57
2022-09-18T02:39:04.911Z,7.72
2022-09-18T02:41:49.314Z,13.30
2022-09-18T02:44:28.002Z,9.40
2022-09-18T02:47:23.585Z,16.12
2022-09-18T02:49:59.555Z,14.35
2022-09-18T02:52:42.331Z,9.45
2022-09-18T02:55:19.987Z,9.13
2022-09-18T02:57:55.627Z,12.45
2022-09-18T03:00:24.854Z,13.43
2022-09-18T03:02:56.950Z,12.65
2022-09-18T03:05:27.296Z,11.50
2022-09-18T03:07:55.197Z,10.95
2022-09-18T03:10:22.915Z,12.93
2022-09-18T03:12:51.402Z,11.98
2022-09-18T03:15:19.162Z,11.70
2022-09-18T03:17:46.716Z,14.23
2022-09-18T03:20:14.753Z,15.82
2022-09-18T03:22:42.316Z,13.25
2022-09-18T03:25:13.250Z,13.57
2022-09-18T03:27:43.211Z,13.55
2022-09-18T03:30:12.125Z,14.55
2022-09-18T03:32:39.911Z,16.55
2022-09-18T03:35:08.596Z,17.20
2022-09-18T03:37:36.273Z,17.27
2022-09-18T03:40:04.869Z,13.13
2022-09-18T03:42:33.016Z,16.87
2022-09-18T03:45:01.065Z,15.90
2022-09-18T03:47:31.852Z,15.55
2022-09-18T03:50:02.249Z,13.68
2022-09-18T03:52:31.083Z,14.00
2022-09-18T03:54:59.299Z,14.20
2022-09-18T03:57:31.944Z,6.03
2022-09-18T03:59:59.790Z,7.10
2022-09-18T04:02:27.780Z,15.80
2022-09-18T04:05:07.291Z,11.15
2022-09-18T04:07:45.471Z,10.88
2022-09-18T04:10:15.929Z,7.85
2022-09-18T04:12:48.067Z,13.48
2022-09-18T04:15:16.901Z,9.13
2022-09-18T04:17:44.531Z,10.32
2022-09-18T04:20:12.342Z,10.02
2022-09-18T04:22:45.007Z,11.12
2022-09-18T04:25:12.750Z,16.75
2022-09-18T04:27:41.093Z,15.80
2022-09-18T04:30:09.492Z,14.20
2022-09-18T04:32:39.257Z,22.35
2022-09-18T04:35:10.822Z,16.08
2022-09-18T04:37:38.879Z,16.33
2022-09-18T04:40:07.982Z,12.68
2022-09-18T04:42:37.946Z,12.02
2022-09-18T04:45:06.948Z,7.55
2022-09-18T04:47:35.305Z,16.10
2022-09-18T04:50:09.150Z,11.60
2022-09-18T04:52:57.115Z,14.85
2022-09-18T04:55:25.983Z,16.87
2022-09-18T04:57:55.827Z,10.90
2022-09-18T05:00:23.668Z,15.57
2022-09-18T05:02:51.610Z,13.95
2022-09-18T05:05:21.512Z,15.27
2022-09-18T05:07:49.728Z,15.65
2022-09-18T05:10:21.760Z,9.23
2022-09-18T05:15:39.408Z,6.40
2022-09-18T05:18:11.944Z,12.45
2022-09-18T05:20:40.185Z,8.23
2022-09-18T05:23:09.086Z,5.95
2022-09-18T05:25:37.325Z,12.18
2022-09-18T05:28:06.505Z,11.12
2022-09-18T05:30:35.766Z,8.25
2022-09-18T05:33:07.656Z,10.50
2022-09-18T05:35:40.022Z,11.43
2022-09-18T05:38:09.181Z,11.25
2022-09-18T05:40:40.013Z,7.43
2022-09-18T05:43:09.885Z,16.65
2022-09-18T05:45:39.524Z,6.82
2022-09-18T05:48:08.368Z,6.78
2022-09-18T05:50:39.145Z,12.43
2022-09-18T05:53:10.701Z,14.13
2022-09-18T05:55:41.965Z,10.68
2022-09-18T05:58:16.333Z,12.13
2022-09-18T06:00:47.828Z,12.25
2022-09-18T06:05:53.024Z,10.75
2022-09-18T06:08:22.220Z,9.48
2022-09-18T06:10:50.504Z,8.65
2022-09-18T06:13:19.263Z,9.10
2022-09-18T06:15:50.501Z,6.00
2022-09-18T06:18:21.219Z,10.60
2022-09-18T06:20:54.692Z,10.55
2022-09-18T06:23:26.030Z,8.85
2022-09-18T06:25:58.653Z,10.95
2022-09-18T06:28:26.884Z,7.87
2022-09-18T06:30:55.611Z,7.65
2022-09-18T06:33:23.285Z,5.30
2022-09-18T06:38:37.995Z,8.02
2022-09-18T06:41:06.022Z,9.25
2022-09-18T06:46:27.996Z,6.53
2022-09-18T06:48:55.797Z,8.77
2022-09-18T06:51:23.845Z,11.48
2022-09-18T06:53:53.673Z,7.85
2022-09-18T06:56:21.336Z,10.57
2022-09-18T06:58:52.046Z,9.73
2022-09-18T07:01:20.080Z,12.90
2022-09-18T07:03:51.294Z,10.73
2022-09-18T07:06:22.864Z,12.18
2022-09-18T07:08:53.686Z,13.95
2022-09-18T07:11:22.078Z,14.90
2022-09-18T07:13:50.309Z,15.15
2022-09-18T07:16:18.392Z,16.87
2022-09-18T07:18:48.971Z,14.55
2022-09-18T07:21:21.276Z,13.52
2022-09-18T07:23:48.990Z,13.40
2022-09-18T07:26:17.081Z,12.37
2022-09-18T07:28:46.834Z,12.77
2022-09-18T07:31:15.144Z,12.60
2022-09-18T07:33:44.190Z,16.52
2022-09-18T07:36:16.178Z,14.17
2022-09-18T07:38:44.331Z,13.43
2022-09-18T07:41:12.398Z,11.63
2022-09-18T07:43:40.293Z,13.77
2022-09-18T07:46:08.502Z,16.83
2022-09-18T07:48:39.087Z,14.45
2022-09-18T07:51:07.138Z,12.35
2022-09-18T07:53:37.771Z,13.02
2022-09-18T07:56:11.908Z,14.10
2022-09-18T07:58:40.498Z,12.25
2022-09-18T08:01:10.681Z,13.82
2022-09-18T08:03:41.425Z,10.60
2022-09-18T08:06:26.802Z,11.73
2022-09-18T08:08:55.373Z,13.27
2022-09-18T08:11:23.293Z,9.15
2022-09-18T08:13:53.938Z,12.75
2022-09-18T08:16:22.626Z,7.62
2022-09-18T08:18:58.753Z,7.53
2022-09-18T08:21:32.590Z,11.20
2022-09-18T08:24:00.966Z,12.75
2022-09-18T08:26:30.574Z,11.95
2022-09-18T08:28:58.244Z,8.60
2022-09-18T08:31:26.858Z,10.77
2022-09-18T08:33:55.505Z,7.82
2022-09-18T08:36:23.311Z,8.57
2022-09-18T08:38:56.263Z,10.80
2022-09-18T08:41:47.534Z,9.88
2022-09-18T08:44:40.165Z,6.47
2022-09-18T08:47:30.994Z,6.03
2022-09-18T08:50:05.751Z,6.12
2022-09-18T08:52:41.403Z,6.62
2022-09-18T08:55:30.645Z,7.37
2022-09-18T08:58:11.833Z,7.85
2022-09-18T09:00:55.732Z,7.20
2022-09-18T09:03:23.872Z,6.00
2022-09-18T09:06:35.842Z,7.60
2022-09-18T09:09:14.238Z,5.37
2022-09-18T09:12:28.095Z,6.05
2022-09-18T09:15:21.856Z,5.25
2022-09-18T09:18:07.443Z,5.72
2022-09-18T09:20:55.300Z,7.93
2022-09-18T09:23:25.943Z,6.50
2022-09-18T09:26:11.873Z,7.37
2022-09-18T09:28:48.933Z,7.43
2022-09-18T09:31:20.994Z,5.15
2022-09-18T09:34:18.677Z,6.72
2022-09-18T09:36:54.401Z,5.87
2022-09-18T09:39:36.577Z,4.70
2022-09-18T09:42:18.547Z,4.00
2022-09-18T09:44:55.502Z,6.90
2022-09-18T09:47:32.007Z,8.93
2022-09-18T09:50:06.153Z,5.50
2022-09-18T09:52:37.336Z,5.87
2022-09-18T09:55:32.348Z,6.75
2022-09-18T09:58:10.698Z,16.50
2022-09-18T10:01:04.378Z,8.07
2022-09-18T10:03:47.536Z,7.03
2022-09-18T10:06:37.261Z,5.95
2022-09-18T10:09:13.260Z,6.32
2022-09-18T10:11:45.601Z,10.13
2022-09-18T10:14:20.174Z,5.32
2022-09-18T10:16:51.905Z,6.53
2022-09-18T10:19:23.237Z,5.70
2022-09-18T10:21:54.343Z,6.32
2022-09-18T10:24:57.285Z,5.28
2022-09-18T10:27:31.600Z,5.50
2022-09-18T10:30:00.316Z,5.87
2022-09-18T10:32:38.329Z,6.32
2022-09-18T10:35:43.794Z,8.63
2022-09-18T10:38:32.561Z,7.05
2022-09-18T10:44:28.446Z,7.18
2022-09-18T10:47:27.600Z,9.05
2022-09-18T10:49:59.154Z,5.60
2022-09-18T10:52:34.701Z,6.35
2022-09-18T10:55:09.417Z,4.85
2022-09-18T10:57:44.080Z,5.22
2022-09-18T11:00:20.573Z,5.30
2022-09-18T11:02:54.931Z,5.90
2022-09-18T11:05:32.563Z,6.10
2022-09-18T11:08:23.960Z,6.78
2022-09-18T11:11:02.133Z,6.20
2022-09-18T11:13:32.745Z,4.97
2022-09-18T11:16:03.468Z,5.00
2022-09-18T11:18:33.276Z,5.22
2022-09-18T11:21:05.546Z,4.78
2022-09-18T11:23:35.905Z,4.07
2022-09-18T11:26:11.926Z,4.72
2022-09-18T11:28:41.516Z,5.25
2022-09-18T11:31:19.494Z,5.50
2022-09-18T11:33:57.715Z,8.50
2022-09-18T11:36:30.379Z,6.32
2022-09-18T11:39:02.051Z,7.25
2022-09-18T11:41:40.298Z,5.30
2022-09-18T11:44:18.431Z,5.43
2022-09-18T11:47:03.020Z,4.30
2022-09-18T11:49:36.384Z,4.70
2022-09-18T11:54:47.132Z,3.85
2022-09-18T11:57:38.133Z,5.05
2022-09-18T12:00:11.710Z,4.72
2022-09-18T12:02:52.883Z,5.47
2022-09-18T12:05:29.845Z,6.30
2022-09-18T12:08:19.624Z,3.37
2022-09-18T12:11:16.172Z,5.00
2022-09-18T12:14:04.409Z,3.50
2022-09-18T12:16:53.534Z,4.40
2022-09-18T12:19:48.653Z,5.10
2022-09-18T12:22:30.171Z,4.50
2022-09-18T12:24:59.117Z,3.85
2022-09-18T12:27:31.703Z,4.72
2022-09-18T12:30:19.861Z,5.65
2022-09-18T12:33:08.007Z,5.80
2022-09-18T12:35:57.646Z,4.18
2022-09-18T12:38:42.579Z,4.82
2022-09-18T12:41:26.900Z,4.80
2022-09-18T12:44:03.751Z,4.53
2022-09-18T12:46:46.679Z,4.50
2022-09-18T12:49:36.459Z,4.35
2022-09-18T12:52:27.644Z,4.57
2022-09-18T12:55:21.014Z,4.85
2022-09-18T12:58:26.440Z,4.68
2022-09-18T13:00:56.376Z,3.78
2022-09-18T13:03:37.179Z,4.15
2022-09-18T13:06:12.324Z,3.87
2022-09-18T13:08:52.463Z,5.43
2022-09-18T13:11:40.206Z,5.47
2022-09-18T13:14:17.736Z,5.90
2022-09-18T13:16:55.018Z,4.93
2022-09-18T13:19:32.750Z,6.50
2022-09-18T13:24:55.452Z,5.18
2022-09-18T13:27:26.217Z,5.55
2022-09-18T13:29:53.929Z,5.15
2022-09-18T13:32:23.152Z,4.43
2022-09-18T13:38:14.886Z,3.72
2022-09-18T13:40:58.814Z,4.65
2022-09-18T13:43:45.955Z,3.78
2022-09-18T13:46:40.071Z,3.50
2022-09-18T13:49:40.239Z,3.55
2022-09-18T13:52:33.563Z,3.60
2022-09-18T13:55:13.570Z,3.00
2022-09-18T13:57:42.304Z,2.62
2022-09-18T14:00:33.117Z,2.75
2022-09-18T14:03:07.308Z,3.95
2022-09-18T14:05:35.011Z,3.55
2022-09-18T14:08:07.941Z,3.17
2022-09-18T14:10:39.982Z,2.30
2022-09-18T14:13:23.025Z,4.43
2022-09-18T14:16:24.854Z,3.90
2022-09-18T14:19:04.462Z,4.15
2022-09-18T14:21:40.205Z,3.50
2022-09-18T14:24:37.519Z,2.25
2022-09-18T14:27:33.690Z,3.00
2022-09-18T14:30:15.684Z,2.50
2022-09-18T14:33:11.787Z,1.98
2022-09-18T14:35:58.001Z,3.60
2022-09-18T14:38:32.305Z,3.35
2022-09-18T14:41:19.665Z,3.60
2022-09-18T14:43:56.199Z,2.25
2022-09-18T14:46:26.072Z,2.45
2022-09-18T14:48:54.622Z,2.92
2022-09-18T14:51:28.579Z,2.72
2022-09-18T14:53:59.702Z,2.12
2022-09-18T14:56:30.952Z,3.10
2022-09-18T14:59:03.850Z,2.85
2022-09-18T15:01:34.126Z,2.28
2022-09-18T15:04:05.165Z,2.95
2022-09-18T15:06:40.625Z,2.45
2022-09-18T15:09:13.359Z,3.25
2022-09-18T15:12:01.240Z,2.90
2022-09-18T15:14:46.799Z,4.82
2022-09-18T15:17:22.418Z,2.17
2022-09-18T15:20:02.347Z,4.95
2022-09-18T15:22:31.342Z,2.60
2022-09-18T15:25:02.162Z,3.75
2022-09-18T15:27:31.908Z,6.57
2022-09-18T15:29:59.964Z,2.83
2022-09-18T15:32:38.700Z,2.20
2022-09-18T15:35:09.978Z,3.20
2022-09-18T15:37:41.432Z,2.33
2022-09-18T15:40:18.445Z,4.10
2022-09-18T15:42:58.726Z,3.10
2022-09-18T15:45:30.158Z,6.03
2022-09-18T15:48:00.956Z,3.75
2022-09-18T15:50:30.295Z,3.37
2022-09-18T15:52:58.458Z,6.22
2022-09-18T15:55:32.130Z,3.33
2022-09-18T15:58:26.728Z,2.95
2022-09-18T16:00:58.547Z,3.10
2022-09-18T16:03:30.405Z,3.78
2022-09-18T16:06:02.785Z,3.12
2022-09-18T16:08:37.185Z,3.20
2022-09-18T16:11:06.745Z,4.10
2022-09-18T16:13:39.209Z,4.43
2022-09-18T16:16:12.602Z,4.90
2022-09-18T16:18:55.222Z,4.00
2022-09-18T16:21:28.257Z,2.55
2022-09-18T16:24:04.015Z,4.10
2022-09-18T16:26:33.264Z,4.50
2022-09-18T16:29:05.382Z,3.33
2022-09-18T16:31:36.263Z,3.30
2022-09-18T16:34:26.438Z,4.35
2022-09-18T16:36:58.671Z,5.32
2022-09-18T16:39:27.819Z,5.97
2022-09-18T16:41:55.565Z,4.87
2022-09-18T16:44:25.379Z,3.85
2022-09-18T16:46:59.514Z,4.57
2022-09-18T16:49:31.012Z,4.65
2022-09-18T16:51:59.244Z,5.07
2022-09-18T16:54:27.095Z,6.78
2022-09-18T16:56:58.862Z,4.47
2022-09-18T16:59:30.332Z,4.70
2022-09-18T17:02:04.243Z,4.93
2022-09-18T17:04:34.610Z,8.48
2022-09-18T17:07:03.366Z,5.35
2022-09-18T17:09:31.788Z,4.97
2022-09-18T17:12:00.349Z,4.85
2022-09-18T17:14:28.202Z,4.95
2022-09-18T17:16:56.157Z,5.95
2022-09-18T17:19:24.493Z,5.00
2022-09-18T17:21:52.723Z,6.03
2022-09-18T17:24:26.505Z,5.75
2022-09-18T17:26:55.208Z,4.75
2022-09-18T17:29:23.197Z,3.85
2022-09-18T17:31:52.680Z,5.30
2022-09-18T17:34:22.446Z,4.00
2022-09-18T17:36:50.722Z,6.43
2022-09-18T17:39:18.891Z,6.00
2022-09-18T17:41:47.310Z,6.78
2022-09-18T17:44:16.143Z,5.85
2022-09-18T17:46:44.820Z,6.05
2022-09-18T17:49:13.424Z,5.53
2022-09-18T17:51:41.496Z,6.82
2022-09-18T17:54:10.802Z,4.93
2022-09-18T17:56:39.495Z,3.58
2022-09-18T17:59:10.087Z,7.53
2022-09-18T18:01:44.788Z,4.28
2022-09-18T18:04:18.623Z,6.25
2022-09-18T18:06:49.015Z,6.57
2022-09-18T18:09:17.565Z,6.43
2022-09-18T18:11:46.601Z,5.05
2022-09-18T18:14:15.095Z,5.68
2022-09-18T18:16:43.813Z,7.47
2022-09-18T18:19:15.842Z,6.75
2022-09-18T18:21:44.598Z,5.07
2022-09-18T18:24:15.771Z,5.03
2022-09-18T18:26:46.208Z,6.45
2022-09-18T18:29:18.319Z,4.25
2022-09-18T18:31:49.529Z,5.30
2022-09-18T18:34:22.692Z,4.47
2022-09-18T18:36:51.308Z,7.20
2022-09-18T18:39:20.382Z,5.15
2022-09-18T18:41:50.120Z,5.43
2022-09-18T18:44:18.919Z,7.32
2022-09-18T18:46:46.877Z,4.47
2022-09-18T18:49:17.006Z,5.62
2022-09-18T18:51:49.210Z,6.85
2022-09-18T18:54:19.453Z,4.87
2022-09-18T18:56:49.299Z,6.70
2022-09-18T18:59:19.720Z,6.78
2022-09-18T19:01:48.270Z,5.57
2022-09-18T19:04:19.568Z,6.28
2022-09-18T19:06:49.476Z,4.25
2022-09-18T19:09:22.117Z,7.03
2022-09-18T19:11:52.089Z,6.25
2022-09-18T19:14:30.042Z,6.68
2022-09-18T19:16:58.585Z,5.60
2022-09-18T19:19:28.653Z,8.77
2022-09-18T19:22:02.348Z,6.32
2022-09-18T19:24:30.846Z,5.35
2022-09-18T19:26:59.372Z,6.87
2022-09-18T19:29:28.650Z,6.50
2022-09-18T19:31:57.939Z,5.78
2022-09-18T19:34:25.707Z,8.50
2022-09-18T19:36:54.012Z,6.15
2022-09-18T19:39:24.284Z,7.28
2022-09-18T19:41:59.502Z,6.80
2022-09-18T19:44:54.309Z,6.82
2022-09-18T19:47:41.319Z,8.40
2022-09-18T19:50:23.221Z,8.52
2022-09-18T19:52:51.592Z,8.35
2022-09-18T19:55:21.126Z,6.25
2022-09-18T19:57:50.358Z,9.15
2022-09-18T20:05:09.940Z,9.52
2022-09-18T20:07:38.799Z,8.57
2022-09-18T20:10:12.780Z,5.95
2022-09-18T20:12:42.859Z,6.50
2022-09-18T20:15:11.572Z,8.48
2022-09-18T20:17:39.565Z,10.23
2022-09-18T20:20:09.020Z,9.48
2022-09-18T20:22:39.999Z,12.25
2022-09-18T20:25:09.332Z,11.15
2022-09-18T20:27:40.878Z,8.63
2022-09-18T20:30:12.800Z,8.27
2022-09-18T20:32:41.445Z,9.77
2022-09-18T20:35:10.253Z,9.13
2022-09-18T20:37:37.992Z,10.10
2022-09-18T20:40:10.592Z,11.10
2022-09-18T20:45:07.639Z,11.00
2022-09-18T20:47:37.234Z,10.35
2022-09-18T20:50:10.862Z,11.75
2022-09-18T20:52:43.302Z,13.23
2022-09-18T20:55:17.677Z,13.95
2022-09-18T20:57:46.683Z,9.88
2022-09-18T21:00:25.166Z,13.35
2022-09-18T21:02:53.656Z,12.43
2022-09-18T21:05:22.334Z,11.35
2022-09-18T21:07:57.621Z,9.07
2022-09-18T21:10:25.662Z,12.52
2022-09-18T21:12:53.355Z,14.45
2022-09-18T21:15:21.135Z,10.48
2022-09-18T21:17:49.968Z,9.27
2022-09-18T21:20:17.744Z,10.15
